Time;durP1;ratioP1;P1;durP2;ratioP2;P2;SDS_P1;SDS_P2;PMS_P1;PMS_P2;Temp;Humidity;BMP_temperature;BMP_pressure;BME280_temperature;BME280_humidity;BME280_pressure;Samples;Min_cycle;Max_cycle;Signal;HPM_P1;HPM_P2
2021/05/12 00:00:57;;;;;;;5.68;5.28;;;11.80;99.90;;;12.59;100.00;97346.63;5206371;28;20678;-60
2021/05/12 00:03:32;;;;;;;5.90;5.45;;;11.80;99.90;;;12.51;100.00;97342.88;5209499;28;20247;-59
2021/05/12 00:06:06;;;;;;;6.25;5.75;;;11.80;99.90;;;12.53;100.00;97343.81;5214352;28;20229;-56
2021/05/12 00:08:38;;;;;;;5.88;5.47;;;11.80;99.90;;;12.54;100.00;97348.13;5208590;28;20268;-59
2021/05/12 00:11:11;;;;;;;5.70;5.28;;;11.70;99.90;;;12.51;100.00;97350.56;5206916;28;20312;-57
2021/05/12 00:13:45;;;;;;;6.03;5.53;;;11.80;99.90;;;12.46;100.00;97354.63;5207633;28;20297;-58
2021/05/12 00:16:17;;;;;;;5.95;5.38;;;11.70;99.90;;;12.43;100.00;97357.06;5206487;28;20234;-59
2021/05/12 00:18:50;;;;;;;5.75;5.35;;;11.70;99.90;;;12.40;100.00;97357.78;5211339;28;20205;-58
2021/05/12 00:21:28;;;;;;;5.18;4.63;;;11.70;99.90;;;12.43;100.00;97354.50;5206227;28;20260;-58
2021/05/12 00:24:01;;;;;;;4.55;4.22;;;11.70;99.90;;;12.40;100.00;97362.06;5211804;28;20235;-55
2021/05/12 00:26:37;;;;;;;4.53;4.22;;;11.70;99.90;;;12.39;100.00;97350.94;5201585;28;20646;-57
2021/05/12 00:29:12;;;;;;;4.68;4.28;;;11.70;99.90;;;12.42;100.00;97359.53;5206126;28;20244;-58
2021/05/12 00:31:45;;;;;;;3.90;3.70;;;11.70;99.90;;;12.43;100.00;97356.19;5207425;28;20221;-59
2021/05/12 00:34:18;;;;;;;4.22;3.92;;;11.70;99.90;;;12.40;100.00;97367.19;5207577;28;20233;-60
2021/05/12 00:36:51;;;;;;;4.57;4.20;;;11.70;99.90;;;12.42;100.00;97364.66;5207442;28;20200;-57
2021/05/12 00:39:24;;;;;;;4.45;4.15;;;11.70;99.90;;;12.45;100.00;97363.13;5208943;28;20697;-57
2021/05/12 00:41:57;;;;;;;4.25;3.95;;;11.70;99.90;;;12.46;100.00;97362.31;5207005;28;20229;-58
2021/05/12 00:44:31;;;;;;;4.18;3.88;;;11.70;99.90;;;12.40;100.00;97362.06;5206247;28;20236;-59
2021/05/12 00:47:06;;;;;;;3.70;3.42;;;11.60;99.90;;;12.36;100.00;97370.41;5206847;28;20324;-58
2021/05/12 00:49:38;;;;;;;3.83;3.60;;;11.60;99.90;;;12.36;100.00;97370.41;5206602;28;20228;-55
2021/05/12 00:52:11;;;;;;;4.22;3.80;;;11.70;99.90;;;12.42;100.00;97365.56;5208587;28;20532;-58
2021/05/12 00:54:43;;;;;;;5.13;4.30;;;11.70;99.90;;;12.38;100.00;97368.78;5210366;28;20293;-59
2021/05/12 00:57:16;;;;;;;4.90;4.50;;;11.60;99.90;;;12.39;100.00;97362.88;5207128;28;20233;-61
2021/05/12 00:59:51;;;;;;;4.68;4.38;;;11.60;99.90;;;12.37;100.00;97367.06;5206038;28;20232;-62
2021/05/12 01:02:24;;;;;;;4.78;4.38;;;11.60;99.90;;;12.34;100.00;97375.47;5209144;28;20665;-61
2021/05/12 01:04:56;;;;;;;5.88;5.32;;;11.70;99.90;;;12.35;100.00;97366.09;5210133;28;20285;-61
2021/05/12 01:07:29;;;;;;;4.72;4.40;;;11.70;99.90;;;12.40;100.00;97373.16;5206223;28;20256;-62
2021/05/12 01:10:02;;;;;;;4.93;4.63;;;11.60;99.90;;;12.39;100.00;97370.56;5205577;28;20245;-62
2021/05/12 01:12:34;;;;;;;4.80;4.50;;;11.60;99.90;;;12.34;100.00;97362.66;5206973;28;20668;-62
2021/05/12 01:15:08;;;;;;;4.88;4.55;;;11.60;99.90;;;12.33;100.00;97371.19;5205917;28;20293;-60
2021/05/12 01:17:42;;;;;;;5.47;5.07;;;11.60;99.90;;;12.30;100.00;97370.16;5212534;28;20753;-61
2021/05/12 01:20:15;;;;;;;5.28;4.88;;;11.60;99.90;;;12.26;100.00;97373.41;5211790;28;20292;-62
2021/05/12 01:22:48;;;;;;;5.05;4.75;;;11.60;99.90;;;12.30;100.00;97371.03;5212413;28;20351;-62
2021/05/12 01:25:21;;;;;;;5.15;4.78;;;11.60;99.90;;;12.35;100.00;97372.09;5206869;28;20204;-62
2021/05/12 01:27:53;;;;;;;5.45;5.05;;;11.60;99.90;;;12.35;100.00;97368.66;5206576;28;20278;-62
2021/05/12 01:30:26;;;;;;;5.40;5.00;;;11.60;99.90;;;12.31;100.00;97374.50;5205183;28;20226;-61
2021/05/12 01:33:00;;;;;;;6.00;5.53;;;11.60;99.90;;;12.29;100.00;97368.41;5211672;28;20231;-62
2021/05/12 01:35:33;;;;;;;6.07;5.57;;;11.60;99.90;;;12.30;100.00;97372.72;5201297;28;20240;-61
2021/05/12 01:38:07;;;;;;;5.97;5.57;;;11.60;99.90;;;12.31;100.00;97371.91;5210186;28;20293;-61
2021/05/12 01:40:40;;;;;;;6.25;5.55;;;11.60;99.90;;;12.33;100.00;97372.84;5209645;28;20255;-60
2021/05/12 01:43:13;;;;;;;6.28;5.68;;;11.60;99.90;;;12.37;100.00;97372.19;5234572;22;20221;-59
2021/05/12 01:45:47;;;;;;;5.78;5.38;;;11.60;99.90;;;12.36;100.00;97375.53;5224508;28;20201;-58
2021/05/12 01:48:20;;;;;;;6.05;5.65;;;11.60;99.90;;;12.27;100.00;97381.16;5224258;28;20222;-58
2021/05/12 01:50:52;;;;;;;6.28;5.78;;;11.60;99.90;;;12.22;100.00;97377.53;5215621;28;20697;-60
2021/05/12 01:53:26;;;;;;;6.38;5.88;;;11.50;99.90;;;12.21;100.00;97374.91;5203510;28;20228;-60
2021/05/12 01:55:59;;;;;;;7.45;6.80;;;11.50;99.90;;;12.26;100.00;97375.97;5201979;28;20289;-60
2021/05/12 01:58:32;;;;;;;7.10;6.50;;;11.60;99.90;;;12.32;100.00;97373.66;5202048;28;20698;-59
2021/05/12 02:01:05;;;;;;;6.93;6.43;;;11.50;99.90;;;12.20;100.00;97373.16;5199222;28;20190;-59
2021/05/12 02:03:38;;;;;;;7.13;6.53;;;11.50;99.90;;;12.17;100.00;97376.47;5200004;28;20267;-60
2021/05/12 02:06:11;;;;;;;7.40;6.80;;;11.40;99.90;;;12.14;100.00;97372.06;5199746;28;20220;-59
2021/05/12 02:08:44;;;;;;;6.65;6.15;;;11.40;99.90;;;12.16;100.00;97362.78;5198734;28;20325;-61
2021/05/12 02:11:17;;;;;;;7.00;6.30;;;11.50;99.90;;;12.07;100.00;97371.72;5199670;28;20202;-59
2021/05/12 02:13:49;;;;;;;6.80;6.28;;;11.40;99.90;;;12.13;100.00;97372.00;5203682;28;20228;-59
2021/05/12 02:16:22;;;;;;;6.38;5.88;;;11.40;99.90;;;12.10;100.00;97371.88;5199214;28;20241;-60
2021/05/12 02:18:54;;;;;;;5.57;5.10;;;11.40;99.90;;;12.03;100.00;97375.84;5201948;28;20236;-59
2021/05/12 02:21:28;;;;;;;6.40;5.80;;;11.30;99.90;;;12.00;100.00;97374.84;5194026;28;20244;-57
2021/05/12 02:24:01;;;;;;;6.25;5.75;;;11.30;99.90;;;12.07;100.00;97374.28;5200762;28;20641;-59
2021/05/12 02:26:34;;;;;;;6.43;5.68;;;11.30;99.90;;;11.99;100.00;97379.09;5204472;28;20252;-58
2021/05/12 02:29:06;;;;;;;6.22;5.68;;;11.20;99.90;;;11.89;100.00;97382.06;5202043;28;20228;-60
2021/05/12 02:31:39;;;;;;;6.78;5.53;;;11.20;99.90;;;11.88;100.00;97376.06;5196249;28;20276;-58
2021/05/12 02:34:11;;;;;;;5.97;5.57;;;11.10;99.90;;;12.01;100.00;97377.47;5202049;28;20288;-59
2021/05/12 02:36:44;;;;;;;5.90;5.40;;;11.20;99.90;;;11.90;100.00;97368.44;5202955;28;20205;-56
2021/05/12 02:39:18;;;;;;;6.22;5.68;;;11.10;99.90;;;11.82;100.00;97375.78;5196554;28;20644;-60
2021/05/12 02:41:50;;;;;;;5.95;5.43;;;11.10;99.90;;;11.76;100.00;97377.16;5202818;28;20238;-58
2021/05/12 02:44:23;;;;;;;6.47;5.82;;;11.00;99.90;;;11.78;100.00;97383.22;5201580;28;20289;-60
2021/05/12 02:46:55;;;;;;;6.25;5.72;;;11.00;99.90;;;11.74;100.00;97379.66;5203125;28;20898;-58
2021/05/12 02:49:28;;;;;;;6.22;5.68;;;11.00;99.90;;;11.72;100.00;97381.28;5200066;28;20317;-59
2021/05/12 02:52:01;;;;;;;6.60;6.05;;;11.10;99.90;;;11.75;100.00;97383.97;5203157;28;20308;-59
2021/05/12 02:54:35;;;;;;;6.90;6.30;;;11.00;99.90;;;11.79;100.00;97385.88;5197331;28;20725;-59
2021/05/12 02:57:08;;;;;;;7.95;6.80;;;11.00;99.90;;;11.83;100.00;97384.31;5195699;28;20281;-59
2021/05/12 02:59:40;;;;;;;7.00;6.40;;;11.00;99.90;;;11.71;100.00;97382.97;5198928;28;20246;-60
2021/05/12 03:02:13;;;;;;;7.85;6.97;;;11.00;99.90;;;11.67;100.00;97390.44;5205075;28;20275;-60
2021/05/12 03:04:46;;;;;;;7.20;6.60;;;10.90;99.90;;;11.69;100.00;97384.56;5195452;28;20198;-60
2021/05/12 03:07:18;;;;;;;8.38;7.57;;;10.90;99.90;;;11.69;100.00;97382.00;5195097;28;20222;-60
2021/05/12 03:09:52;;;;;;;9.13;7.47;;;10.90;99.90;;;11.60;100.00;97379.03;5194258;28;20713;-57
2021/05/12 03:12:25;;;;;;;8.38;7.57;;;10.90;99.90;;;11.57;100.00;97376.34;5199475;28;20305;-60
2021/05/12 03:14:57;;;;;;;9.07;8.38;;;10.90;99.90;;;11.54;100.00;97383.03;5203065;28;20202;-57
2021/05/12 03:17:30;;;;;;;9.32;8.43;;;10.80;99.90;;;11.52;100.00;97375.25;5193395;28;20293;-60
2021/05/12 03:20:05;;;;;;;9.13;8.32;;;10.80;99.90;;;11.52;100.00;97382.94;5206232;28;20301;-58
2021/05/12 03:22:37;;;;;;;9.88;9.07;;;10.80;99.90;;;11.49;100.00;97387.91;5202505;28;20229;-60
2021/05/12 03:25:13;;;;;;;9.50;8.68;;;10.80;99.90;;;11.54;100.00;97391.56;5201672;28;20681;-60
2021/05/12 03:27:46;;;;;;;9.95;9.05;;;10.80;99.90;;;11.41;100.00;97397.78;5205286;28;20271;-58
2021/05/12 03:30:27;;;;;;;10.88;9.32;;;10.80;99.90;;;11.54;100.00;97390.69;5200190;28;20194;-59
2021/05/12 03:33:02;;;;;;;9.43;8.63;;;10.80;99.90;;;11.50;100.00;97392.22;5205384;28;20217;-60
2021/05/12 03:35:37;;;;;;;11.07;9.55;;;10.80;99.90;;;11.46;100.00;97383.53;5203331;28;20198;-59
2021/05/12 03:38:12;;;;;;;11.40;10.30;;;10.80;99.90;;;11.40;100.00;97390.06;5203639;28;20234;-60
2021/05/12 03:40:45;;;;;;;10.85;9.88;;;10.80;99.90;;;11.40;100.00;97390.06;5206493;28;20288;-60
2021/05/12 03:43:18;;;;;;;12.05;10.80;;;10.80;99.90;;;11.50;100.00;97397.34;5205591;28;20230;-59
2021/05/12 03:45:50;;;;;;;9.85;9.05;;;10.80;99.90;;;11.46;100.00;97393.78;5199720;28;20287;-60
2021/05/12 03:48:23;;;;;;;11.23;10.27;;;10.80;99.90;;;11.49;100.00;97398.16;5205568;28;20596;-60
2021/05/12 03:50:57;;;;;;;11.57;10.07;;;10.80;99.90;;;11.52;100.00;97388.06;5202985;28;20209;-59
2021/05/12 03:53:30;;;;;;;11.57;10.48;;;10.80;99.90;;;11.43;100.00;97391.06;5198487;28;20760;-61
2021/05/12 03:56:05;;;;;;;12.23;10.88;;;10.70;99.90;;;11.43;100.00;97392.75;5200477;28;20663;-61
2021/05/12 03:58:37;;;;;;;11.95;10.85;;;10.70;99.90;;;11.36;100.00;97390.72;5207791;28;20289;-57
2021/05/12 04:01:10;;;;;;;12.30;11.10;;;10.60;99.90;;;11.36;100.00;97383.94;5204857;28;20206;-59
2021/05/12 04:03:42;;;;;;;12.85;11.75;;;10.70;99.90;;;11.35;100.00;97391.53;5200320;28;20253;-60
2021/05/12 04:06:15;;;;;;;13.52;12.32;;;10.70;99.90;;;11.40;100.00;97395.19;5198364;28;20301;-58
2021/05/12 04:08:48;;;;;;;13.55;12.27;;;10.70;99.90;;;11.39;100.00;97398.53;5201346;28;20257;-59
2021/05/12 04:11:21;;;;;;;15.15;13.75;;;10.60;99.90;;;11.30;100.00;97398.09;5204048;28;20241;-61
2021/05/12 04:13:54;;;;;;;14.23;12.93;;;10.60;99.90;;;11.26;100.00;97390.28;5200460;28;20305;-60
2021/05/12 04:16:26;;;;;;;15.27;13.93;;;10.60;99.90;;;11.22;100.00;97388.41;5199691;28;20525;-59
2021/05/12 04:18:59;;;;;;;15.77;14.27;;;10.60;99.90;;;11.34;100.00;97394.91;5204740;28;20197;-59
2021/05/12 04:21:32;;;;;;;15.55;14.07;;;10.60;99.90;;;11.33;100.00;97395.69;5205390;28;20206;-61
2021/05/12 04:24:05;;;;;;;16.65;15.02;;;10.60;99.90;;;11.34;100.00;97392.34;5202379;28;20202;-59
2021/05/12 04:26:39;;;;;;;17.60;15.85;;;10.60;99.90;;;11.34;100.00;97400.03;5199829;28;20757;-60
2021/05/12 04:29:11;;;;;;;18.17;16.38;;;10.60;99.90;;;11.33;100.00;97394.03;5201185;28;20696;-60
2021/05/12 04:31:44;;;;;;;16.83;15.15;;;10.60;99.90;;;11.33;100.00;97398.25;5191027;28;20314;-60
2021/05/12 04:34:17;;;;;;;19.95;16.27;;;10.70;99.90;;;11.39;100.00;97404.53;5198399;28;20644;-60
2021/05/12 04:36:49;;;;;;;19.08;17.10;;;10.70;99.90;;;11.42;100.00;97411.50;5201823;28;20221;-60
2021/05/12 04:39:23;;;;;;;17.77;15.93;;;10.70;99.90;;;11.42;100.00;97404.69;5201429;28;20221;-60
2021/05/12 04:41:56;;;;;;;18.60;16.73;;;10.70;99.90;;;11.41;100.00;97412.28;5201302;28;20228;-60
2021/05/12 04:44:29;;;;;;;17.48;15.70;;;10.60;99.90;;;11.35;100.00;97406.88;5200520;28;20280;-59
2021/05/12 04:47:01;;;;;;;17.90;15.75;;;10.60;99.90;;;11.30;100.00;97422.00;5202092;28;20198;-60
2021/05/12 04:49:34;;;;;;;19.08;17.08;;;10.60;99.90;;;11.30;100.00;97418.56;5201110;28;20689;-59
2021/05/12 04:52:08;;;;;;;18.48;16.63;;;10.70;99.90;;;11.37;100.00;97415.50;5200046;28;20296;-60
2021/05/12 04:54:40;;;;;;;19.88;17.77;;;10.70;99.90;;;11.37;100.00;97418.06;5202199;28;20289;-60
2021/05/12 04:57:14;;;;;;;19.40;17.50;;;10.70;99.90;;;11.41;100.00;97427.63;5205102;28;20283;-59
2021/05/12 04:59:46;;;;;;;22.27;18.88;;;10.70;99.90;;;11.48;100.00;97429.69;5201621;28;20229;-60
2021/05/12 05:02:19;;;;;;;21.23;18.13;;;10.80;99.90;;;11.33;100.00;97441.75;5205169;28;20601;-60
2021/05/12 05:04:53;;;;;;;23.52;18.40;;;10.60;99.90;;;11.40;100.00;97433.56;5201297;28;20194;-59
2021/05/12 05:07:26;;;;;;;22.85;18.42;;;10.70;99.90;;;11.40;100.00;97446.34;5200979;28;20662;-59
2021/05/12 05:10:01;;;;;;;21.27;18.30;;;10.70;99.90;;;11.45;100.00;97453.44;5201596;28;20309;-59
2021/05/12 05:12:35;;;;;;;21.98;18.75;;;10.70;99.90;;;11.51;100.00;97450.28;5204645;28;20662;-57
2021/05/12 05:15:10;;;;;;;22.13;19.83;;;10.70;99.90;;;11.55;100.00;97446.19;5204708;28;20590;-59
2021/05/12 05:17:43;;;;;;;24.30;19.52;;;10.70;99.90;;;11.49;100.00;97445.09;5206168;28;20285;-55
2021/05/12 05:20:16;;;;;;;24.42;20.02;;;10.80;99.90;;;11.59;100.00;97446.41;5205067;28;20336;-59
2021/05/12 05:22:49;;;;;;;21.80;19.48;;;10.80;99.90;;;11.62;100.00;97446.56;5202934;28;20265;-58
2021/05/12 05:25:21;;;;;;;22.23;18.38;;;10.70;99.90;;;11.59;100.00;97451.53;5199796;28;20312;-56
2021/05/12 05:27:55;;;;;;;21.40;18.73;;;10.80;99.90;;;11.55;100.00;97441.06;5202228;28;20293;-60
2021/05/12 05:30:27;;;;;;;26.73;19.85;;;10.80;99.90;;;11.49;100.00;97454.47;5206673;28;20232;-57
2021/05/12 05:33:02;;;;;;;21.30;18.65;;;10.80;99.90;;;11.44;100.00;97463.59;5205242;28;20304;-58
2021/05/12 05:35:35;;;;;;;21.80;19.30;;;10.80;99.90;;;11.44;100.00;97466.16;5189371;28;20190;-59
2021/05/12 05:38:07;;;;;;;21.38;18.70;;;10.80;99.90;;;11.47;100.00;97467.19;5202582;28;20209;-57
2021/05/12 05:40:40;;;;;;;22.58;17.77;;;10.80;99.90;;;11.48;100.00;97473.19;5204511;28;20296;-58
2021/05/12 05:43:15;;;;;;;24.83;20.13;;;10.80;99.90;;;11.41;100.00;97464.31;5205172;28;20316;-56
2021/05/12 05:45:48;;;;;;;26.92;20.00;;;10.70;99.90;;;11.46;100.00;97469.66;5204356;28;20206;-56
2021/05/12 05:48:21;;;;;;;20.88;18.30;;;10.80;99.90;;;11.49;100.00;97468.13;5201123;28;20665;-56
2021/05/12 05:50:54;;;;;;;24.55;18.85;;;10.80;99.90;;;11.47;100.00;97467.19;5203546;28;20198;-58
2021/05/12 05:53:26;;;;;;;20.13;18.05;;;10.90;99.90;;;11.50;100.00;97463.88;5200171;28;20256;-56
2021/05/12 05:55:59;;;;;;;21.98;19.27;;;10.80;99.90;;;11.55;100.00;97462.41;5197765;28;20236;-55
2021/05/12 05:58:32;;;;;;;23.13;18.42;;;10.90;99.90;;;11.57;100.00;97455.69;5197714;28;20198;-58
2021/05/12 06:01:05;;;;;;;20.85;18.48;;;10.90;99.90;;;11.59;100.00;97460.88;5200808;28;20237;-57
2021/05/12 06:03:38;;;;;;;24.80;19.33;;;10.90;99.90;;;11.65;100.00;97468.88;5194378;28;20245;-54
2021/05/12 06:06:10;;;;;;;21.70;19.38;;;10.90;99.90;;;11.67;100.00;97468.09;5201115;28;20226;-58
2021/05/12 06:08:43;;;;;;;23.20;18.75;;;10.90;99.90;;;11.60;100.00;97460.97;5201093;28;20271;-55
2021/05/12 06:11:16;;;;;;;24.83;18.77;;;10.90;99.90;;;11.59;100.00;97464.34;5194948;28;20621;-57
2021/05/12 06:13:50;;;;;;;23.42;18.95;;;10.90;99.90;;;11.60;100.00;97470.31;5203590;28;20237;-58
2021/05/12 06:16:22;;;;;;;22.38;18.15;;;10.90;99.90;;;11.60;100.00;97467.75;5204113;28;20208;-58
2021/05/12 06:18:55;;;;;;;23.23;19.48;;;10.90;99.90;;;11.63;100.00;97470.47;5194217;28;20281;-57
2021/05/12 06:21:28;;;;;;;20.55;17.30;;;10.90;99.90;;;11.61;100.00;97466.94;5199168;28;20244;-57
2021/05/12 06:24:01;;;;;;;24.48;18.60;;;10.90;99.90;;;11.71;100.00;97471.69;5202131;28;20194;-58
2021/05/12 06:26:36;;;;;;;21.10;18.25;;;10.90;99.90;;;11.69;100.00;97471.63;5200020;28;20285;-54
2021/05/12 06:29:11;;;;;;;19.25;17.23;;;10.90;99.90;;;11.59;100.00;97471.09;5202025;28;20317;-59
2021/05/12 06:31:43;;;;;;;22.00;16.98;;;10.80;99.90;;;11.57;100.00;97468.50;5202875;28;20308;-58
2021/05/12 06:34:16;;;;;;;20.85;16.52;;;10.90;99.90;;;11.58;100.00;97477.91;5196350;28;20237;-55
2021/05/12 06:36:48;;;;;;;17.33;14.77;;;10.80;99.90;;;11.49;100.00;97482.63;5199214;28;20292;-59
2021/05/12 06:39:21;;;;;;;18.80;14.93;;;10.80;99.90;;;11.50;100.00;97479.22;5196715;28;20284;-61
2021/05/12 06:41:54;;;;;;;17.85;15.95;;;10.80;99.90;;;11.55;100.00;97472.66;5195337;28;20226;-59
2021/05/12 06:44:28;;;;;;;21.38;16.35;;;10.80;99.90;;;11.57;100.00;97483.84;5194730;28;20203;-58
2021/05/12 06:47:01;;;;;;;17.80;15.93;;;10.80;99.90;;;11.57;100.00;97488.97;5198843;28;20198;-61
2021/05/12 06:49:33;;;;;;;17.65;15.90;;;10.80;99.90;;;11.48;100.00;97484.28;5207119;28;20213;-58
2021/05/12 06:52:06;;;;;;;16.80;15.05;;;10.80;99.90;;;11.37;100.00;97482.03;5197537;28;20217;-60
2021/05/12 06:54:39;;;;;;;17.48;15.50;;;10.70;99.90;;;11.34;100.00;97489.56;5203897;28;20294;-59
2021/05/12 06:57:11;;;;;;;15.40;13.85;;;10.60;99.90;;;11.29;100.00;97489.34;5199384;28;20210;-59
2021/05/12 06:59:45;;;;;;;20.13;16.00;;;10.60;99.90;;;11.36;100.00;97506.75;5202172;28;20290;-58
2021/05/12 07:02:17;;;;;;;17.58;15.55;;;10.70;99.90;;;11.37;100.00;97507.63;5198040;28;20225;-61
2021/05/12 07:04:50;;;;;;;18.05;15.73;;;10.60;99.90;;;11.44;100.00;97501.97;5203037;28;20225;-57
2021/05/12 07:07:23;;;;;;;16.98;14.90;;;10.70;99.90;;;11.35;100.00;97504.09;5206280;28;20297;-58
2021/05/12 07:09:55;;;;;;;19.23;15.10;;;10.70;99.90;;;11.44;100.00;97501.97;5202152;28;20696;-58
2021/05/12 07:12:28;;;;;;;17.10;14.35;;;10.80;99.90;;;11.39;100.00;97506.00;5203776;28;20218;-59
2021/05/12 07:15:02;;;;;;;16.77;14.48;;;10.80;99.90;;;11.45;100.00;97496.94;5204220;28;20293;-58
2021/05/12 07:17:35;;;;;;;16.50;13.95;;;10.80;99.90;;;11.47;100.00;97504.69;5200458;28;20279;-60
2021/05/12 07:20:09;;;;;;;16.92;14.63;;;10.80;99.90;;;11.45;100.00;97496.94;5201588;28;20223;-60
2021/05/12 07:22:42;;;;;;;15.48;13.68;;;10.80;99.90;;;11.43;100.00;97502.78;5198769;28;20376;-60
2021/05/12 07:25:15;;;;;;;15.45;13.85;;;10.80;99.90;;;11.40;100.00;97495.84;5199092;28;20202;-62
2021/05/12 07:27:49;;;;;;;15.30;13.70;;;10.70;99.90;;;11.39;100.00;97501.78;5202216;28;20864;-58
2021/05/12 07:30:22;;;;;;;16.67;14.18;;;10.80;99.90;;;11.38;100.00;97499.13;5204165;28;20878;-61
2021/05/12 07:32:55;;;;;;;20.60;14.95;;;10.70;99.90;;;11.45;100.00;97493.53;5201903;28;20253;-61
2021/05/12 07:35:28;;;;;;;14.07;12.05;;;10.70;99.90;;;11.41;100.00;97494.16;5201113;28;20208;-59
2021/05/12 07:38:01;;;;;;;15.45;13.80;;;10.70;99.90;;;11.49;100.00;97487.72;5197185;28;20198;-58
2021/05/12 07:40:34;;;;;;;13.43;12.07;;;10.70;99.90;;;11.45;100.00;97486.72;5203284;28;20229;-62
2021/05/12 07:43:09;;;;;;;13.45;12.10;;;10.70;99.90;;;11.43;100.00;97484.88;5200311;28;20253;-60
2021/05/12 07:45:43;;;;;;;15.40;13.18;;;10.70;99.90;;;11.53;100.00;97484.50;5202479;28;20293;-61
2021/05/12 07:48:16;;;;;;;14.60;13.20;;;10.80;99.90;;;11.57;100.00;97486.41;5203192;28;20233;-62
2021/05/12 07:50:48;;;;;;;13.32;12.02;;;10.80;99.90;;;11.63;100.00;97494.38;5199806;28;20640;-60
2021/05/12 07:53:21;;;;;;;15.40;11.77;;;10.80;99.90;;;11.66;100.00;97491.09;5199005;28;20220;-61
2021/05/12 07:55:54;;;;;;;12.90;11.68;;;10.80;99.90;;;11.69;100.00;97491.22;5199299;28;20195;-62
2021/05/12 07:58:27;;;;;;;13.48;12.07;;;10.80;99.90;;;11.67;100.00;97491.13;5205610;28;20198;-61
2021/05/12 08:01:06;;;;;;;12.70;10.98;;;10.80;99.90;;;11.70;100.00;97493.88;5197779;28;20292;-62
2021/05/12 08:03:38;;;;;;;12.30;11.02;;;10.80;99.90;;;11.71;100.00;97493.06;5203644;28;20246;-56
2021/05/12 08:06:11;;;;;;;12.45;11.25;;;10.80;99.90;;;11.79;100.00;97489.94;5203712;28;20228;-61
2021/05/12 08:08:44;;;;;;;13.77;10.43;;;10.80;99.90;;;11.79;100.00;97482.28;5207355;28;20198;-61
2021/05/12 08:11:19;;;;;;;12.02;10.57;;;10.80;99.90;;;11.73;100.00;97486.34;5199134;28;20242;-60
2021/05/12 08:13:52;;;;;;;13.95;10.80;;;10.80;99.90;;;11.79;100.00;97495.06;5202889;28;20627;-62
2021/05/12 08:16:25;;;;;;;11.35;10.23;;;10.80;99.90;;;11.78;100.00;97493.34;5201864;28;20706;-61
2021/05/12 08:18:58;;;;;;;11.48;10.20;;;10.80;99.90;;;11.76;100.00;97497.50;5205887;28;20198;-62
2021/05/12 08:21:31;;;;;;;11.55;10.10;;;10.80;99.90;;;11.75;100.00;97493.19;5197425;28;20292;-62
2021/05/12 08:24:05;;;;;;;10.98;9.95;;;10.80;99.90;;;11.73;100.00;97488.88;5198220;28;20194;-62
2021/05/12 08:26:38;;;;;;;10.30;9.23;;;10.80;99.90;;;11.73;100.00;97488.00;5202830;28;20300;-59
2021/05/12 08:29:12;;;;;;;12.43;11.10;;;10.70;99.90;;;11.65;100.00;97487.66;5205128;28;20723;-60
2021/05/12 08:31:46;;;;;;;11.23;9.90;;;10.80;99.90;;;11.72;100.00;97476.88;5204136;28;20631;-61
2021/05/12 08:34:19;;;;;;;10.38;9.40;;;10.80;99.90;;;11.70;100.00;97478.50;5201273;28;20203;-60
2021/05/12 08:36:51;;;;;;;13.60;10.98;;;10.80;99.90;;;11.78;100.00;97472.84;5200416;28;20201;-61
2021/05/12 08:39:25;;;;;;;12.20;9.70;;;10.80;99.90;;;11.72;100.00;97482.00;5199930;28;20675;-61
2021/05/12 08:41:58;;;;;;;12.18;10.50;;;10.80;99.90;;;11.77;100.00;97478.78;5198360;28;20256;-61
2021/05/12 08:44:35;;;;;;;11.43;10.20;;;10.80;99.90;;;11.86;100.00;97484.34;5197272;28;20202;-61
2021/05/12 08:47:13;;;;;;;11.57;10.25;;;10.90;99.90;;;11.84;100.00;97491.06;5201334;28;20208;-62
2021/05/12 08:49:49;;;;;;;12.10;10.25;;;10.90;99.90;;;11.83;100.00;97487.63;5198343;28;20605;-61
2021/05/12 08:52:23;;;;;;;11.55;10.45;;;10.90;99.90;;;11.90;100.00;97488.81;5201927;28;20249;-61
2021/05/12 08:54:56;;;;;;;11.23;10.23;;;10.90;99.90;;;11.80;100.00;97499.41;5195631;28;20619;-63
2021/05/12 08:57:29;;;;;;;11.95;10.80;;;10.90;99.90;;;11.73;100.00;97496.56;5204310;28;20209;-63
2021/05/12 09:00:02;;;;;;;11.73;10.52;;;10.90;99.90;;;11.68;100.00;97494.59;5203202;28;20194;-61
2021/05/12 09:02:37;;;;;;;10.38;9.38;;;10.80;99.90;;;11.58;100.00;97488.16;5201144;28;20253;-59
2021/05/12 09:05:11;;;;;;;11.60;10.25;;;10.70;99.90;;;11.65;100.00;97484.22;5201740;28;20207;-59
2021/05/12 09:07:44;;;;;;;11.50;9.68;;;10.70;99.90;;;11.68;100.00;97484.38;5201449;28;20201;-60
2021/05/12 09:10:17;;;;;;;9.90;8.93;;;10.80;99.90;;;11.59;100.00;97489.94;5197519;28;20308;-59
2021/05/12 09:12:52;;;;;;;14.27;10.20;;;10.70;99.90;;;11.66;100.00;97486.84;5200981;28;20304;-59
2021/05/12 09:15:27;;;;;;;10.88;9.77;;;10.70;99.90;;;11.71;100.00;97484.50;5205638;28;20229;-59
2021/05/12 09:18:04;;;;;;;11.48;10.27;;;10.80;99.90;;;11.65;100.00;97495.34;5201220;28;20201;-62
2021/05/12 09:20:39;;;;;;;11.10;9.63;;;10.80;99.90;;;11.77;100.00;97476.22;5202766;28;20653;-60
2021/05/12 09:23:17;;;;;;;10.88;9.93;;;10.90;99.90;;;11.62;100.00;97484.09;5200734;28;20308;-60
2021/05/12 09:25:56;;;;;;;10.90;9.80;;;10.80;99.90;;;11.73;100.00;97477.75;5202793;28;20202;-60
2021/05/12 09:28:29;;;;;;;12.95;10.38;;;10.90;99.90;;;11.79;100.00;97479.72;5200817;28;20635;-61
2021/05/12 09:31:06;;;;;;;11.00;9.90;;;10.90;99.90;;;11.85;100.00;97483.50;5198799;28;20280;-61
2021/05/12 09:33:44;;;;;;;10.38;9.50;;;10.90;99.90;;;11.94;100.00;97483.91;5197734;28;20240;-58
2021/05/12 09:36:28;;;;;;;10.63;9.55;;;11.00;99.90;;;12.05;100.00;97486.09;5200001;28;20225;-59
2021/05/12 09:39:01;;;;;;;11.82;8.93;;;11.10;99.90;;;12.03;100.00;97490.25;5201884;28;20607;-56
2021/05/12 09:41:37;;;;;;;9.93;8.88;;;11.00;99.90;;;12.05;100.00;97486.94;5195323;28;20195;-60
2021/05/12 09:44:10;;;;;;;11.20;9.80;;;11.00;99.90;;;12.02;100.00;97491.94;5201256;28;20304;-60
2021/05/12 09:46:43;;;;;;;11.00;9.55;;;11.00;99.90;;;11.95;100.00;97475.41;5201749;28;20289;-60
2021/05/12 09:49:17;;;;;;;11.80;10.60;;;11.00;99.90;;;11.91;100.00;97477.78;5201703;28;20201;-60
2021/05/12 09:51:50;;;;;;;11.75;9.90;;;11.00;99.90;;;11.95;100.00;97477.09;5202375;28;20223;-56
2021/05/12 09:54:28;;;;;;;11.95;9.95;;;11.00;99.90;;;11.93;100.00;97481.25;5204584;28;20208;-61
2021/05/12 09:57:02;;;;;;;11.45;9.65;;;11.00;99.90;;;11.95;100.00;97479.66;5199901;28;20225;-60
2021/05/12 09:59:35;;;;;;;11.52;9.68;;;11.00;99.90;;;11.97;100.00;97478.03;5205225;28;20189;-61
2021/05/12 10:02:08;;;;;;;11.55;10.45;;;11.00;99.90;;;11.97;100.00;97488.28;5195801;28;20245;-62
2021/05/12 10:04:43;;;;;;;12.65;10.48;;;11.10;99.90;;;11.94;100.00;97483.91;5196589;28;20604;-60
2021/05/12 10:07:19;;;;;;;11.30;10.20;;;11.10;99.90;;;11.96;100.00;97489.09;5195939;28;20229;-61
2021/05/12 10:09:53;;;;;;;10.98;10.07;;;11.00;99.90;;;11.97;100.00;97483.16;5200229;28;20258;-61
2021/05/12 10:12:29;;;;;;;11.18;9.55;;;11.10;99.90;;;12.03;100.00;97488.56;5200460;28;20246;-58
2021/05/12 10:15:01;;;;;;;11.00;9.90;;;11.00;99.90;;;11.98;100.00;97479.78;5195740;28;20314;-61
2021/05/12 10:17:35;;;;;;;11.05;10.05;;;11.10;99.90;;;11.90;100.00;97476.00;5204214;28;20201;-61
2021/05/12 10:20:11;;;;;;;12.48;10.93;;;11.10;99.90;;;11.97;100.00;97483.16;5201107;28;20284;-62
2021/05/12 10:22:44;;;;;;;11.80;10.68;;;11.10;99.90;;;11.96;100.00;97468.63;5201264;28;20217;-63
2021/05/12 10:25:17;;;;;;;12.45;10.73;;;11.10;99.90;;;12.03;100.00;97470.63;5196929;28;20232;-62
2021/05/12 10:27:51;;;;;;;11.10;9.95;;;11.20;99.90;;;12.12;100.00;97473.59;5197633;28;20214;-60
2021/05/12 10:30:23;;;;;;;12.05;10.82;;;11.30;99.90;;;12.14;100.00;97471.13;5199230;28;20336;-61